Time;durP1;ratioP1;P1;durP2;ratioP2;P2;SDS_P1;SDS_P2;PMS_P1;PMS_P2;Temp;Humidity;BMP_temperature;BMP_pressure;BME280_temperature;BME280_humidity;BME280_pressure;Samples;Min_cycle;Max_cycle;Signal;HPM_P1;HPM_P2
2022/10/19 00:00:48;;;;;;;98.05;13.43;;;;;;;;;;6054279;29;20044;-83
2022/10/19 00:03:53;;;;;;;94.47;15.07;;;;;;;;;;6068623;29;20126;-83
2022/10/19 00:06:54;;;;;;;151.32;16.75;;;;;;;;;;6054782;29;20163;-83
2022/10/19 00:09:56;;;;;;;34.53;12.48;;;;;;;;;;6070051;29;20045;-83
2022/10/19 00:12:57;;;;;;;72.20;14.57;;;;;;;;;;6053762;29;20563;-83
2022/10/19 00:16:00;;;;;;;64.72;13.60;;;;;;;;;;6065452;29;20185;-82
2022/10/19 00:19:05;;;;;;;40.53;12.02;;;;;;;;;;6063083;29;20048;-83
2022/10/19 00:22:07;;;;;;;95.40;14.05;;;;;;;;;;6069414;29;21958;-83
2022/10/19 00:25:14;;;;;;;101.25;14.98;;;;;;;;;;6055550;29;20044;-83
2022/10/19 00:28:15;;;;;;;155.52;19.05;;;;;;;;;;6067616;29;20048;-83
2022/10/19 00:31:17;;;;;;;63.83;13.10;;;;;;;;;;6053342;29;20059;-83
2022/10/19 00:34:19;;;;;;;203.13;19.00;;;;;;;;;;6066926;29;20058;-83
2022/10/19 00:37:20;;;;;;;60.83;13.05;;;;;;;;;;6068263;29;21290;-82
2022/10/19 00:40:22;;;;;;;128.82;14.73;;;;;;;;;;6055923;29;20044;-83
2022/10/19 00:43:26;;;;;;;53.53;11.88;;;;;;;;;;6043923;29;20381;-83
2022/10/19 00:46:31;;;;;;;84.32;12.13;;;;;;;;;;6054796;29;20041;-82
2022/10/19 00:49:36;;;;;;;93.50;13.63;;;;;;;;;;6063067;29;20146;-83
2022/10/19 00:52:38;;;;;;;33.25;11.20;;;;;;;;;;6064498;29;20055;-82
2022/10/19 00:55:40;;;;;;;34.42;11.23;;;;;;;;;;6029141;29;20052;-82
2022/10/19 00:58:43;;;;;;;23.70;10.38;;;;;;;;;;6067363;29;20071;-82
2022/10/19 01:01:45;;;;;;;31.13;10.27;;;;;;;;;;6054798;29;20100;-83
2022/10/19 01:04:50;;;;;;;25.25;10.00;;;;;;;;;;6055973;29;20051;-83
2022/10/19 01:07:53;;;;;;;49.47;10.25;;;;;;;;;;6056109;29;20055;-83
2022/10/19 01:11:10;;;;;;;24.38;9.82;;;;;;;;;;6070615;29;20048;-82
2022/10/19 01:14:36;;;;;;;59.70;11.45;;;;;;;;;;6054498;29;20048;-83
2022/10/19 01:17:47;;;;;;;23.90;9.98;;;;;;;;;;6071720;29;20140;-83
2022/10/19 01:21:07;;;;;;;90.80;14.45;;;;;;;;;;6069399;29;20056;-83
2022/10/19 01:24:14;;;;;;;68.82;11.68;;;;;;;;;;6043121;29;20068;-83
2022/10/19 01:27:50;;;;;;;58.92;9.82;;;;;;;;;;6070113;29;20048;-83
2022/10/19 01:31:19;;;;;;;23.75;9.40;;;;;;;;;;6056921;29;20044;-83
2022/10/19 01:34:31;;;;;;;38.67;9.80;;;;;;;;;;6055023;29;20052;-82
2022/10/19 01:37:47;;;;;;;64.63;11.02;;;;;;;;;;6049971;29;20052;-83
2022/10/19 01:40:58;;;;;;;37.30;9.55;;;;;;;;;;6055137;29;20047;-83
2022/10/19 01:44:10;;;;;;;32.25;10.30;;;;;;;;;;6056009;29;20048;-83
2022/10/19 01:47:29;;;;;;;21.17;9.43;;;;;;;;;;6069597;29;20072;-83
2022/10/19 01:50:58;;;;;;;151.98;18.30;;;;;;;;;;6073365;29;20500;-82
2022/10/19 01:54:04;;;;;;;55.25;11.93;;;;;;;;;;6069922;29;20139;-82
2022/10/19 01:57:09;;;;;;;25.88;9.30;;;;;;;;;;6053690;29;20065;-83
2022/10/19 02:00:13;;;;;;;33.08;11.25;;;;;;;;;;6055783;29;20089;-83
2022/10/19 02:03:18;;;;;;;37.47;9.98;;;;;;;;;;6039791;29;20051;-83
2022/10/19 02:06:20;;;;;;;67.43;10.40;;;;;;;;;;6051883;29;20582;-82
2022/10/19 02:09:22;;;;;;;60.30;10.57;;;;;;;;;;6070843;29;20048;-83
2022/10/19 02:12:27;;;;;;;57.00;10.45;;;;;;;;;;6063353;29;20057;-83
2022/10/19 02:15:32;;;;;;;61.78;10.38;;;;;;;;;;6070413;29;20060;-83
2022/10/19 02:18:39;;;;;;;83.05;10.65;;;;;;;;;;6055058;29;20524;-83
2022/10/19 02:21:40;;;;;;;92.63;11.35;;;;;;;;;;6073579;29;20049;-83
2022/10/19 02:24:42;;;;;;;47.65;9.95;;;;;;;;;;6056316;29;20474;-83
2022/10/19 02:27:44;;;;;;;68.47;10.55;;;;;;;;;;6072864;29;20056;-83
2022/10/19 02:30:45;;;;;;;32.30;8.88;;;;;;;;;;6072037;29;20048;-83
2022/10/19 02:33:47;;;;;;;51.40;9.73;;;;;;;;;;6054935;29;20068;-82
2022/10/19 02:36:49;;;;;;;30.33;8.00;;;;;;;;;;6069922;29;20052;-83
2022/10/19 02:39:51;;;;;;;37.45;8.23;;;;;;;;;;6055323;29;20055;-83
2022/10/19 02:43:00;;;;;;;63.30;9.48;;;;;;;;;;6047861;29;20051;-83
2022/10/19 02:46:26;;;;;;;30.58;8.77;;;;;;;;;;6051922;29;20053;-83
2022/10/19 02:49:31;;;;;;;73.03;10.95;;;;;;;;;;6031586;29;20185;-83
2022/10/19 02:52:35;;;;;;;57.63;9.45;;;;;;;;;;6067138;29;20401;-83
2022/10/19 02:55:37;;;;;;;58.40;9.93;;;;;;;;;;6054036;29;20424;-82
2022/10/19 02:58:44;;;;;;;33.38;7.97;;;;;;;;;;6064360;29;20044;-82
2022/10/19 03:01:46;;;;;;;60.47;10.27;;;;;;;;;;6070275;29;20128;-83
2022/10/19 03:04:47;;;;;;;40.33;9.85;;;;;;;;;;6069193;29;20089;-83
2022/10/19 03:07:49;;;;;;;138.93;12.25;;;;;;;;;;6071673;29;20049;-83
2022/10/19 03:10:50;;;;;;;78.88;11.55;;;;;;;;;;6053963;29;20049;-82
2022/10/19 03:13:52;;;;;;;37.40;8.43;;;;;;;;;;6069593;29;20040;-83
2022/10/19 03:16:54;;;;;;;87.25;10.32;;;;;;;;;;6053612;29;20052;-82
2022/10/19 03:19:55;;;;;;;35.65;8.82;;;;;;;;;;6068804;29;20118;-83
2022/10/19 03:22:57;;;;;;;64.13;10.68;;;;;;;;;;6037889;29;20047;-83
2022/10/19 03:25:59;;;;;;;23.70;8.18;;;;;;;;;;6036879;29;20112;-83
2022/10/19 03:29:00;;;;;;;32.15;7.60;;;;;;;;;;6052023;29;20040;-83
2022/10/19 03:32:03;;;;;;;21.40;7.28;;;;;;;;;;6064545;29;20682;-83
2022/10/19 03:35:05;;;;;;;77.28;8.68;;;;;;;;;;6069163;29;20040;-83
2022/10/19 03:38:06;;;;;;;77.82;9.27;;;;;;;;;;6052885;29;20048;-83
2022/10/19 03:41:08;;;;;;;26.25;8.02;;;;;;;;;;6068493;29;20656;-83
2022/10/19 03:44:11;;;;;;;33.58;7.30;;;;;;;;;;6063122;29;20059;-83
2022/10/19 03:47:12;;;;;;;25.85;7.88;;;;;;;;;;6051168;29;20061;-83
2022/10/19 03:50:15;;;;;;;18.95;6.32;;;;;;;;;;6057734;29;20218;-82
2022/10/19 03:53:17;;;;;;;34.75;6.70;;;;;;;;;;6069607;29;20053;-82
2022/10/19 03:56:21;;;;;;;45.88;7.63;;;;;;;;;;6067827;29;20060;-82
2022/10/19 03:59:23;;;;;;;59.97;8.80;;;;;;;;;;6060595;29;20048;-82
2022/10/19 04:02:28;;;;;;;75.03;9.80;;;;;;;;;;6046347;29;20060;-82
2022/10/19 04:05:29;;;;;;;105.10;10.95;;;;;;;;;;6045475;29;20064;-82
2022/10/19 04:08:31;;;;;;;22.95;6.95;;;;;;;;;;6066621;29;20063;-82
2022/10/19 04:11:33;;;;;;;105.50;12.75;;;;;;;;;;6050405;29;20140;-82
2022/10/19 04:14:35;;;;;;;102.90;12.38;;;;;;;;;;6065100;29;20040;-82
2022/10/19 04:17:56;;;;;;;45.58;8.80;;;;;;;;;;6065953;29;20056;-82
2022/10/19 04:21:03;;;;;;;19.67;8.60;;;;;;;;;;6068807;29;20041;-82
2022/10/19 04:24:08;;;;;;;25.95;8.10;;;;;;;;;;6067924;29;20045;-83
2022/10/19 04:27:09;;;;;;;26.67;7.80;;;;;;;;;;6066852;29;20059;-82
2022/10/19 04:30:11;;;;;;;70.78;10.40;;;;;;;;;;6036808;29;20752;-83
2022/10/19 04:33:12;;;;;;;38.40;7.93;;;;;;;;;;6068428;29;20048;-83
2022/10/19 04:36:14;;;;;;;35.80;8.02;;;;;;;;;;6060181;29;20048;-83
2022/10/19 04:39:16;;;;;;;36.83;7.60;;;;;;;;;;6056672;29;20061;-83
2022/10/19 04:42:18;;;;;;;92.65;10.95;;;;;;;;;;6057646;29;20053;-83
2022/10/19 04:45:19;;;;;;;29.05;7.68;;;;;;;;;;6069287;29;20525;-82
2022/10/19 04:48:21;;;;;;;28.25;7.50;;;;;;;;;;6073224;29;20040;-82
2022/10/19 04:51:24;;;;;;;35.33;8.65;;;;;;;;;;6043009;29;20805;-82
2022/10/19 04:54:25;;;;;;;29.77;7.57;;;;;;;;;;6070773;29;20055;-82
2022/10/19 04:57:28;;;;;;;38.88;7.30;;;;;;;;;;6070040;29;20106;-82
2022/10/19 05:00:29;;;;;;;42.75;8.00;;;;;;;;;;6059563;29;20040;-82
2022/10/19 05:03:31;;;;;;;21.48;6.43;;;;;;;;;;6055374;29;20067;-82
2022/10/19 05:06:33;;;;;;;56.70;8.32;;;;;;;;;;6071860;29;20420;-82
2022/10/19 05:09:34;;;;;;;25.52;6.88;;;;;;;;;;6074789;29;20500;-82
2022/10/19 05:12:36;;;;;;;21.35;6.20;;;;;;;;;;6055475;29;20107;-81
2022/10/19 05:15:38;;;;;;;12.80;6.28;;;;;;;;;;6072323;29;20059;-82
2022/10/19 05:18:40;;;;;;;33.58;8.45;;;;;;;;;;6054214;29;20228;-82
2022/10/19 05:21:41;;;;;;;39.25;7.60;;;;;;;;;;6056881;29;20047;-82
2022/10/19 05:24:43;;;;;;;14.88;6.22;;;;;;;;;;6052841;29;20679;-82
2022/10/19 05:27:50;;;;;;;18.52;6.05;;;;;;;;;;6063101;29;20058;-83
2022/10/19 05:30:51;;;;;;;26.42;6.93;;;;;;;;;;6053115;29;20063;-83
2022/10/19 05:33:55;;;;;;;100.93;9.48;;;;;;;;;;6064573;29;20076;-82
2022/10/19 05:36:56;;;;;;;29.45;7.57;;;;;;;;;;6064431;29;20099;-82
2022/10/19 05:39:58;;;;;;;18.05;6.90;;;;;;;;;;6069015;29;20049;-83
2022/10/19 05:43:00;;;;;;;17.23;6.45;;;;;;;;;;6068606;29;20400;-82
2022/10/19 05:46:06;;;;;;;66.35;8.25;;;;;;;;;;6061372;29;20061;-83
2022/10/19 05:49:12;;;;;;;26.38;6.82;;;;;;;;;;6051552;29;20052;-83
2022/10/19 05:52:16;;;;;;;29.58;5.90;;;;;;;;;;6048787;29;20048;-82
2022/10/19 05:55:18;;;;;;;23.95;6.75;;;;;;;;;;6055951;29;20100;-83
2022/10/19 05:58:20;;;;;;;35.55;7.50;;;;;;;;;;6050891;29;20052;-82
2022/10/19 06:01:22;;;;;;;27.17;7.20;;;;;;;;;;6065761;29;20049;-82
2022/10/19 06:04:27;;;;;;;39.05;7.10;;;;;;;;;;6063492;29;20044;-82
2022/10/19 06:07:28;;;;;;;22.33;6.50;;;;;;;;;;6033933;29;20048;-82
2022/10/19 06:10:30;;;;;;;27.55;6.75;;;;;;;;;;6060389;29;20086;-82
2022/10/19 06:13:32;;;;;;;30.92;7.75;;;;;;;;;;6048228;29;20052;-82
2022/10/19 06:16:33;;;;;;;25.90;6.30;;;;;;;;;;6045598;29;20554;-81
2022/10/19 06:19:35;;;;;;;77.72;8.98;;;;;;;;;;6048854;29;20056;-82
2022/10/19 06:22:37;;;;;;;24.20;7.22;;;;;;;;;;6047086;29;20048;-82
2022/10/19 06:25:39;;;;;;;20.70;7.50;;;;;;;;;;6042328;29;20493;-81
2022/10/19 06:28:42;;;;;;;24.98;6.85;;;;;;;;;;6059598;29;20048;-82
2022/10/19 06:31:45;;;;;;;22.88;6.90;;;;;;;;;;6050111;29;20054;-82
2022/10/19 06:34:46;;;;;;;21.27;6.63;;;;;;;;;;6066001;29;20049;-82
2022/10/19 06:37:48;;;;;;;23.35;7.15;;;;;;;;;;6063868;29;20052;-81
2022/10/19 06:40:50;;;;;;;23.50;6.53;;;;;;;;;;6067789;29;20048;-82
2022/10/19 06:43:53;;;;;;;20.23;6.72;;;;;;;;;;6067885;29;20052;-81
2022/10/19 06:46:55;;;;;;;16.60;6.75;;;;;;;;;;6047904;29;20064;-81
2022/10/19 06:49:57;;;;;;;37.60;6.45;;;;;;;;;;6050554;29;20415;-81
2022/10/19 06:52:58;;;;;;;20.00;7.00;;;;;;;;;;6051893;29;20057;-82
2022/10/19 06:56:03;;;;;;;19.05;6.75;;;;;;;;;;6030896;29;20037;-82
2022/10/19 06:59:05;;;;;;;50.92;6.90;;;;;;;;;;6069137;29;20847;-82
2022/10/19 07:02:06;;;;;;;21.95;6.78;;;;;;;;;;6061338;29;20052;-82
2022/10/19 07:05:09;;;;;;;22.73;6.97;;;;;;;;;;6049341;29;20619;-82
2022/10/19 07:08:10;;;;;;;22.58;6.45;;;;;;;;;;6051720;29;20045;-82
2022/10/19 07:11:17;;;;;;;22.58;7.13;;;;;;;;;;6067126;29;20056;-82
2022/10/19 07:14:19;;;;;;;22.10;6.30;;;;;;;;;;6049008;29;20040;-82
2022/10/19 07:17:26;;;;;;;19.95;6.15;;;;;;;;;;6289476;27;20122;-80
2022/10/19 07:20:28;;;;;;;19.70;6.05;;;;;;;;;;6288100;28;20040;-79
2022/10/19 07:23:31;;;;;;;17.50;6.55;;;;;;;;;;6291599;27;22197;-80
2022/10/19 07:26:33;;;;;;;16.52;6.80;;;;;;;;;;6306473;27;20048;-81
2022/10/19 07:29:38;;;;;;;20.67;6.35;;;;;;;;;;6315095;27;20880;-81
2022/10/19 07:32:39;;;;;;;13.77;5.97;;;;;;;;;;6312918;27;20050;-82
2022/10/19 07:35:47;;;;;;;19.92;6.93;;;;;;;;;;6316947;27;20047;-82
2022/10/19 07:38:49;;;;;;;13.45;6.45;;;;;;;;;;6315520;27;21124;-81
2022/10/19 07:41:50;;;;;;;20.58;7.15;;;;;;;;;;6312499;27;20035;-81
2022/10/19 07:44:52;;;;;;;13.35;5.20;;;;;;;;;;6314291;27;20281;-81
2022/10/19 07:47:54;;;;;;;12.50;5.78;;;;;;;;;;6323729;27;20062;-81
2022/10/19 07:50:56;;;;;;;18.65;7.13;;;;;;;;;;6312869;27;20527;-82
2022/10/19 07:53:58;;;;;;;19.30;7.05;;;;;;;;;;6310332;27;20051;-81
2022/10/19 07:57:00;;;;;;;18.13;7.88;;;;;;;;;;6316932;27;20107;-81
2022/10/19 08:00:02;;;;;;;26.50;9.02;;;;;;;;;;6311765;27;20043;-81
2022/10/19 08:03:12;;;;;;;17.88;7.82;;;;;;;;;;6308413;27;20103;-81
2022/10/19 08:06:35;;;;;;;20.05;7.13;;;;;;;;;;6311373;27;20118;-82
2022/10/19 08:09:37;;;;;;;14.30;6.95;;;;;;;;;;6314124;27;20467;-81
2022/10/19 08:12:54;;;;;;;15.40;6.75;;;;;;;;;;6322989;27;20166;-81
2022/10/19 08:15:55;;;;;;;13.18;7.45;;;;;;;;;;6313556;27;20044;-80
2022/10/19 08:19:01;;;;;;;13.77;6.88;;;;;;;;;;6293674;27;21790;-81
2022/10/19 08:22:02;;;;;;;14.88;7.05;;;;;;;;;;6314200;27;20044;-79
2022/10/19 08:25:04;;;;;;;17.63;7.05;;;;;;;;;;6315040;27;20463;-79
2022/10/19 08:28:06;;;;;;;24.88;8.57;;;;;;;;;;6294017;28;20044;-80
2022/10/19 08:31:20;;;;;;;14.07;6.90;;;;;;;;;;6294951;27;20059;-79
2022/10/19 08:34:22;;;;;;;27.80;7.88;;;;;;;;;;6292443;27;20098;-81
2022/10/19 08:37:23;;;;;;;17.77;7.28;;;;;;;;;;6308149;27;20082;-80
2022/10/19 08:40:44;;;;;;;16.90;7.68;;;;;;;;;;6294265;28;20044;-81
2022/10/19 08:44:11;;;;;;;13.75;6.32;;;;;;;;;;6295067;27;20055;-82
2022/10/19 08:47:19;;;;;;;14.13;6.22;;;;;;;;;;6304694;28;20766;-80
2022/10/19 08:50:30;;;;;;;21.98;6.90;;;;;;;;;;6297838;27;20052;-81
2022/10/19 08:53:59;;;;;;;14.68;6.88;;;;;;;;;;6297845;27;20695;-80
2022/10/19 08:57:20;;;;;;;11.45;6.00;;;;;;;;;;6291483;28;20052;-80
2022/10/19 09:00:42;;;;;;;12.07;6.47;;;;;;;;;;6288275;28;20073;-79
2022/10/19 09:03:54;;;;;;;14.40;6.00;;;;;;;;;;6310157;28;20051;-79
2022/10/19 09:07:14;;;;;;;13.48;6.60;;;;;;;;;;6286466;28;20055;-78
2022/10/19 09:10:27;;;;;;;12.63;5.35;;;;;;;;;;6291709;28;20052;-79
2022/10/19 09:13:37;;;;;;;9.30;4.75;;;;;;;;;;6295701;28;20039;-78
2022/10/19 09:17:05;;;;;;;10.23;4.00;;;;;;;;;;6291327;28;20040;-79
2022/10/19 09:20:18;;;;;;;9.98;4.78;;;;;;;;;;6296947;27;20146;-78
2022/10/19 09:23:27;;;;;;;9.20;3.28;;;;;;;;;;6291805;28;21194;-78
2022/10/19 09:26:33;;;;;;;10.98;3.80;;;;;;;;;;6293043;28;20040;-79
2022/10/19 09:29:46;;;;;;;4.70;2.40;;;;;;;;;;6295824;28;20052;-78
2022/10/19 09:32:50;;;;;;;;;;;;;;;;;;6289965;28;20476;-78
2022/10/19 09:35:55;;;;;;;4.75;2.15;;;;;;;;;;6291157;28;20086;-78
2022/10/19 09:38:56;;;;;;;6.25;2.67;;;;;;;;;;6307420;28;20047;-77
2022/10/19 09:42:06;;;;;;;10.43;2.83;;;;;;;;;;6295302;28;20130;-79
2022/10/19 09:45:18;;;;;;;7.68;3.15;;;;;;;;;;6294726;27;20091;-78
2022/10/19 09:48:43;;;;;;;5.78;2.88;;;;;;;;;;6294156;28;20060;-78
2022/10/19 09:51:51;;;;;;;8.18;3.40;;;;;;;;;;6291090;28;20057;-78
2022/10/19 09:55:03;;;;;;;8.90;3.10;;;;;;;;;;6290420;28;20040;-78
2022/10/19 09:58:16;;;;;;;10.68;3.13;;;;;;;;;;6289447;28;20032;-78
2022/10/19 10:01:37;;;;;;;7.30;2.83;;;;;;;;;;6287989;28;20455;-77
2022/10/19 10:04:45;;;;;;;5.40;2.80;;;;;;;;;;6291865;28;20058;-78
2022/10/19 10:07:53;;;;;;;4.55;2.25;;;;;;;;;;6290251;28;20048;-78
2022/10/19 10:11:05;;;;;;;5.32;2.40;;;;;;;;;;6292237;28;21441;-78
2022/10/19 10:14:26;;;;;;;4.35;2.40;;;;;;;;;;6304131;27;20077;-77
2022/10/19 10:17:29;;;;;;;5.95;2.40;;;;;;;;;;6302891;28;20036;-78
2022/10/19 10:20:31;;;;;;;5.97;2.33;;;;;;;;;;6276720;28;20055;-78
2022/10/19 10:23:35;;;;;;;6.53;2.60;;;;;;;;;;6295022;28;20044;-77
2022/10/19 10:26:42;;;;;;;4.68;2.10;;;;;;;;;;6305378;28;20044;-77
2022/10/19 10:29:54;;;;;;;6.20;2.30;;;;;;;;;;6300742;28;20605;-77
2022/10/19 10:33:02;;;;;;;7.88;2.45;;;;;;;;;;6283536;28;20236;-77
2022/10/19 10:36:24;;;;;;;5.93;1.90;;;;;;;;;;6299659;27;20042;-78
2022/10/19 10:39:27;;;;;;;7.70;2.20;;;;;;;;;;6294965;27;20059;-77
2022/10/19 10:42:42;;;;;;;6.28;2.00;;;;;;;;;;6286420;27;20047;-77
2022/10/19 10:45:51;;;;;;;4.20;2.00;;;;;;;;;;6283228;28;20055;-78
2022/10/19 10:49:01;;;;;;;6.20;2.28;;;;;;;;;;6295408;28;20036;-78
2022/10/19 10:52:10;;;;;;;2.95;1.88;;;;;;;;;;6302364;28;20268;-77
2022/10/19 10:55:15;;;;;;;5.57;1.85;;;;;;;;;;6290680;27;20444;-77
2022/10/19 10:58:31;;;;;;;6.80;2.00;;;;;;;;;;6285722;28;20047;-78
2022/10/19 11:01:39;;;;;;;3.08;1.63;;;;;;;;;;6285369;28;20040;-77
2022/10/19 11:04:50;;;;;;;4.85;2.15;;;;;;;;;;6291093;28;20044;-77
2022/10/19 11:08:04;;;;;;;6.10;2.20;;;;;;;;;;6281327;28;20047;-77
2022/10/19 11:11:22;;;;;;;4.60;2.10;;;;;;;;;;6281183;28;20051;-76
2022/10/19 11:14:27;;;;;;;6.75;2.35;;;;;;;;;;6283012;28;20063;-77
2022/10/19 11:17:32;;;;;;;5.53;2.38;;;;;;;;;;6282686;28;20035;-76
2022/10/19 11:20:41;;;;;;;6.03;2.28;;;;;;;;;;6285432;28;20557;-78
2022/10/19 11:24:07;;;;;;;9.35;1.98;;;;;;;;;;6304833;27;20048;-78
2022/10/19 11:27:24;;;;;;;7.13;2.40;;;;;;;;;;6293457;27;20039;-77
2022/10/19 11:30:26;;;;;;;5.90;2.10;;;;;;;;;;6291819;28;20515;-78
2022/10/19 11:33:47;;;;;;;3.10;2.07;;;;;;;;;;6297180;27;20055;-77
2022/10/19 11:37:17;;;;;;;4.43;2.10;;;;;;;;;;6308675;28;20127;-78
2022/10/19 11:40:47;;;;;;;5.55;2.40;;;;;;;;;;6285238;28;20116;-77
2022/10/19 11:44:32;;;;;;;4.07;1.92;;;;;;;;;;6297496;28;20787;-80
2022/10/19 11:47:51;;;;;;;6.68;2.08;;;;;;;;;;6304710;28;20044;-77
2022/10/19 11:51:17;;;;;;;4.25;2.40;;;;;;;;;;6297043;28;20307;-78
2022/10/19 11:55:00;;;;;;;8.77;2.60;;;;;;;;;;6294166;28;20044;-79
2022/10/19 11:58:31;;;;;;;9.07;2.20;;;;;;;;;;6293742;28;20049;-79
2022/10/19 12:01:41;;;;;;;3.30;2.03;;;;;;;;;;6290882;28;20082;-78
2022/10/19 12:04:55;;;;;;;4.70;2.05;;;;;;;;;;6294035;28;20135;-78
2022/10/19 12:08:00;;;;;;;6.22;2.00;;;;;;;;;;6301901;28;20503;-79
2022/10/19 12:11:22;;;;;;;4.53;2.15;;;;;;;;;;6305169;27;20048;-77
2022/10/19 12:14:29;;;;;;;5.40;2.50;;;;;;;;;;6304584;27;20052;-78
2022/10/19 12:17:36;;;;;;;6.03;2.65;;;;;;;;;;6303191;28;20458;-78
2022/10/19 12:20:45;;;;;;;3.58;1.92;;;;;;;;;;6304171;27;20035;-79
2022/10/19 12:23:47;;;;;;;6.35;2.47;;;;;;;;;;6316188;27;20243;-78
2022/10/19 12:26:50;;;;;;;7.00;2.78;;;;;;;;;;6295950;28;20056;-78
2022/10/19 12:29:53;;;;;;;6.50;2.13;;;;;;;;;;6318611;27;20044;-77
2022/10/19 12:33:06;;;;;;;3.08;2.13;;;;;;;;;;6319603;27;20032;-79
2022/10/19 12:36:19;;;;;;;5.95;2.28;;;;;;;;;;6301521;27;21248;-78
2022/10/19 12:39:38;;;;;;;5.75;2.33;;;;;;;;;;6320891;27;20069;-79
2022/10/19 12:42:52;;;;;;;4.13;2.35;;;;;;;;;;6282865;28;20043;-78
2022/10/19 12:46:24;;;;;;;6.57;2.25;;;;;;;;;;6302060;28;20079;-77
2022/10/19 12:49:37;;;;;;;3.42;1.90;;;;;;;;;;6304800;28;20062;-79
2022/10/19 12:52:43;;;;;;;4.72;2.20;;;;;;;;;;6318754;27;20055;-79
2022/10/19 12:55:45;;;;;;;5.78;2.25;;;;;;;;;;6305803;28;20048;-78
2022/10/19 12:59:00;;;;;;;7.20;2.38;;;;;;;;;;6305151;28;20274;-78
2022/10/19 13:02:05;;;;;;;7.57;2.63;;;;;;;;;;6304809;28;20044;-78
2022/10/19 13:05:07;;;;;;;6.75;2.67;;;;;;;;;;6319835;28;20154;-79
2022/10/19 13:08:26;;;;;;;3.50;2.30;;;;;;;;;;6293018;27;20051;-78
2022/10/19 13:11:28;;;;;;;5.28;2.50;;;;;;;;;;6300497;28;20032;-79
2022/10/19 13:14:48;;;;;;;4.33;2.57;;;;;;;;;;6297850;28;20044;-78
2022/10/19 13:17:51;;;;;;;6.22;2.72;;;;;;;;;;6280927;28;20044;-78
2022/10/19 13:20:52;;;;;;;6.57;2.83;;;;;;;;;;6306414;28;20046;-78
2022/10/19 13:24:23;;;;;;;4.35;2.70;;;;;;;;;;6304864;28;20056;-78
2022/10/19 13:27:26;;;;;;;5.65;2.65;;;;;;;;;;6298787;28;20044;-77
2022/10/19 13:30:34;;;;;;;7.50;2.88;;;;;;;;;;6288904;28;20082;-79
2022/10/19 13:33:43;;;;;;;5.43;2.90;;;;;;;;;;6289025;28;20053;-79
2022/10/19 13:36:59;;;;;;;6.78;2.70;;;;;;;;;;6263917;28;20048;-78
2022/10/19 13:40:19;;;;;;;8.32;2.53;;;;;;;;;;6276089;28;21256;-79
2022/10/19 13:43:52;;;;;;;6.57;2.33;;;;;;;;;;6312833;27;20048;-79
2022/10/19 13:47:15;;;;;;;6.40;2.60;;;;;;;;;;6306807;27;20090;-77
2022/10/19 13:50:44;;;;;;;5.70;2.28;;;;;;;;;;6292778;28;20086;-77
2022/10/19 13:53:56;;;;;;;4.93;1.90;;;;;;;;;;6280583;28;20040;-78
2022/10/19 13:57:16;;;;;;;4.38;2.15;;;;;;;;;;6306934;28;20044;-79
2022/10/19 14:00:20;;;;;;;3.08;2.03;;;;;;;;;;6299540;27;20040;-79
2022/10/19 14:03:40;;;;;;;8.63;2.72;;;;;;;;;;6276325;28;20052;-79
2022/10/19 14:06:47;;;;;;;5.10;2.53;;;;;;;;;;6293274;28;20391;-79
2022/10/19 14:09:59;;;;;;;5.68;2.17;;;;;;;;;;6293509;28;20089;-80
2022/10/19 14:13:04;;;;;;;5.10;2.30;;;;;;;;;;6310894;28;20056;-79
2022/10/19 14:16:06;;;;;;;5.80;2.60;;;;;;;;;;6302166;28;20508;-79
2022/10/19 14:19:12;;;;;;;3.87;2.37;;;;;;;;;;6293039;28;20524;-79
2022/10/19 14:22:34;;;;;;;4.72;2.42;;;;;;;;;;6304608;27;20434;-79
2022/10/19 14:25:36;;;;;;;6.35;2.33;;;;;;;;;;6314722;27;20082;-78
2022/10/19 14:28:39;;;;;;;4.63;2.22;;;;;;;;;;6283634;28;20219;-80
2022/10/19 14:31:41;;;;;;;6.85;2.35;;;;;;;;;;6303254;28;20047;-79
2022/10/19 14:34:45;;;;;;;4.93;2.13;;;;;;;;;;6317966;28;20495;-79
2022/10/19 14:37:47;;;;;;;3.58;2.05;;;;;;;;;;6302457;28;20069;-80
2022/10/19 14:40:49;;;;;;;4.78;1.85;;;;;;;;;;6304860;28;20054;-79
2022/10/19 14:43:52;;;;;;;7.22;2.20;;;;;;;;;;6284527;28;20108;-78
2022/10/19 14:46:55;;;;;;;4.47;1.80;;;;;;;;;;6304966;27;20109;-79
2022/10/19 14:49:57;;;;;;;5.15;1.92;;;;;;;;;;6288828;27;20044;-78
2022/10/19 14:53:30;;;;;;;6.22;2.53;;;;;;;;;;6300396;27;20104;-78
2022/10/19 14:56:37;;;;;;;3.65;1.73;;;;;;;;;;6289235;28;20055;-78
2022/10/19 14:59:45;;;;;;;6.78;2.33;;;;;;;;;;6307129;27;20107;-79
2022/10/19 15:02:50;;;;;;;4.03;1.70;;;;;;;;;;6288226;28;20055;-77
2022/10/19 15:06:00;;;;;;;5.97;1.80;;;;;;;;;;6287900;28;20100;-77
2022/10/19 15:09:05;;;;;;;2.70;1.60;;;;;;;;;;6297928;28;20559;-77
2022/10/19 15:12:20;;;;;;;5.78;2.58;;;;;;;;;;6281074;28;20470;-77
2022/10/19 15:15:28;;;;;;;5.35;2.40;;;;;;;;;;6276866;28;20640;-77
2022/10/19 15:18:39;;;;;;;7.53;2.33;;;;;;;;;;6278545;28;20040;-77
2022/10/19 15:22:15;;;;;;;6.85;2.40;;;;;;;;;;6280544;28;20159;-77
2022/10/19 15:25:27;;;;;;;7.25;3.72;;;;;;;;;;6284382;27;21359;-77
2022/10/19 15:28:35;;;;;;;5.82;2.53;;;;;;;;;;6273990;28;20055;-77
2022/10/19 15:31:42;;;;;;;5.20;2.08;;;;;;;;;;6303291;27;20040;-77
2022/10/19 15:34:44;;;;;;;6.45;2.78;;;;;;;;;;6283909;28;20044;-77
2022/10/19 15:37:48;;;;;;;6.38;2.63;;;;;;;;;;6287055;28;20064;-77
2022/10/19 15:40:56;;;;;;;5.05;2.38;;;;;;;;;;6303487;28;20258;-77
2022/10/19 15:44:01;;;;;;;12.57;5.40;;;;;;;;;;6272106;27;20040;-78
2022/10/19 15:47:18;;;;;;;15.02;4.55;;;;;;;;;;6286040;28;20041;-77
2022/10/19 15:50:35;;;;;;;4.55;2.70;;;;;;;;;;6288396;27;20090;-77
2022/10/19 15:53:37;;;;;;;7.18;3.20;;;;;;;;;;6293395;28;20040;-77
2022/10/19 15:56:39;;;;;;;5.20;2.42;;;;;;;;;;6285187;28;20044;-77
2022/10/19 15:59:40;;;;;;;6.45;2.75;;;;;;;;;;6280950;28;20044;-77
2022/10/19 16:02:43;;;;;;;7.53;2.90;;;;;;;;;;6284943;28;20410;-77
2022/10/19 16:05:44;;;;;;;4.45;2.80;;;;;;;;;;6281342;28;20052;-77
2022/10/19 16:08:46;;;;;;;5.55;3.10;;;;;;;;;;6303357;28;20044;-77
2022/10/19 16:11:49;;;;;;;10.15;5.38;;;;;;;;;;6288741;27;20051;-78
2022/10/19 16:14:51;;;;;;;7.35;5.05;;;;;;;;;;6290653;28;20059;-78
2022/10/19 16:17:56;;;;;;;6.57;3.42;;;;;;;;;;6288627;28;20457;-77
2022/10/19 16:20:58;;;;;;;5.03;2.90;;;;;;;;;;6293860;28;20059;-77
2022/10/19 16:24:00;;;;;;;9.32;3.22;;;;;;;;;;6291120;27;20041;-78
2022/10/19 16:27:03;;;;;;;4.77;2.90;;;;;;;;;;6289342;27;20139;-77
2022/10/19 16:30:05;;;;;;;5.93;2.83;;;;;;;;;;6269421;28;20044;-78
2022/10/19 16:33:07;;;;;;;6.47;3.33;;;;;;;;;;6298485;27;20048;-78
2022/10/19 16:36:09;;;;;;;5.68;2.80;;;;;;;;;;6284076;28;20048;-78
2022/10/19 16:39:11;;;;;;;8.25;3.30;;;;;;;;;;6289156;28;20044;-78
2022/10/19 16:42:12;;;;;;;5.82;3.30;;;;;;;;;;6281277;28;20105;-78
2022/10/19 16:45:14;;;;;;;4.63;3.13;;;;;;;;;;6290236;28;20110;-79
2022/10/19 16:48:16;;;;;;;5.40;3.70;;;;;;;;;;6290722;28;20358;-79
2022/10/19 16:51:27;;;;;;;11.80;4.28;;;;;;;;;;6303806;27;20047;-79
2022/10/19 16:54:29;;;;;;;7.18;3.90;;;;;;;;;;6293995;27;20048;-78
2022/10/19 16:57:31;;;;;;;7.93;4.10;;;;;;;;;;6292096;28;20040;-79
2022/10/19 17:00:34;;;;;;;8.07;4.20;;;;;;;;;;6295658;27;20419;-79
2022/10/19 17:03:36;;;;;;;10.07;4.35;;;;;;;;;;6296538;28;20045;-79
2022/10/19 17:06:39;;;;;;;5.97;3.73;;;;;;;;;;6312895;27;20067;-80
2022/10/19 17:09:41;;;;;;;8.23;4.05;;;;;;;;;;6300326;28;20056;-79
2022/10/19 17:12:43;;;;;;;10.00;4.25;;;;;;;;;;6300384;27;20067;-79
2022/10/19 17:15:45;;;;;;;7.40;4.05;;;;;;;;;;6302352;27;20246;-80
2022/10/19 17:18:48;;;;;;;7.72;4.30;;;;;;;;;;6300348;28;20052;-79
2022/10/19 17:21:49;;;;;;;8.32;4.65;;;;;;;;;;6304807;28;20052;-80
2022/10/19 17:24:52;;;;;;;8.50;4.93;;;;;;;;;;6305524;27;20766;-79
2022/10/19 17:27:54;;;;;;;15.60;8.88;;;;;;;;;;6301854;28;20103;-80
2022/10/19 17:31:00;;;;;;;12.00;8.05;;;;;;;;;;6303003;28;20050;-79
2022/10/19 17:34:03;;;;;;;10.00;4.95;;;;;;;;;;6306302;27;20039;-79
2022/10/19 17:37:05;;;;;;;7.43;4.37;;;;;;;;;;6308466;27;20138;-79
2022/10/19 17:40:07;;;;;;;9.82;4.72;;;;;;;;;;6294401;28;20048;-82
2022/10/19 17:43:09;;;;;;;11.13;4.05;;;;;;;;;;6303617;28;20043;-81
2022/10/19 17:46:13;;;;;;;5.28;3.72;;;;;;;;;;6289814;28;20475;-81
2022/10/19 17:49:15;;;;;;;8.23;3.55;;;;;;;;;;6300133;28;20062;-80
2022/10/19 17:52:16;;;;;;;8.93;3.60;;;;;;;;;;6304628;28;20424;-81
2022/10/19 17:55:18;;;;;;;6.07;3.60;;;;;;;;;;6304773;27;20166;-82
2022/10/19 17:58:20;;;;;;;7.40;3.92;;;;;;;;;;6298536;28;20518;-81
2022/10/19 18:01:23;;;;;;;6.95;3.58;;;;;;;;;;6291162;28;20440;-82
2022/10/19 18:04:25;;;;;;;5.88;3.35;;;;;;;;;;6301483;27;20063;-81
2022/10/19 18:07:27;;;;;;;4.78;3.20;;;;;;;;;;6288209;27;20121;-81
2022/10/19 18:10:28;;;;;;;4.10;3.00;;;;;;;;;;6298626;27;20129;-80
2022/10/19 18:13:34;;;;;;;7.18;3.08;;;;;;;;;;6279710;28;20112;-80
2022/10/19 18:16:46;;;;;;;12.60;3.90;;;;;;;;;;6272047;28;20175;-80
2022/10/19 18:19:48;;;;;;;11.82;5.65;;;;;;;;;;6287293;28;20055;-80
2022/10/19 18:22:51;;;;;;;5.55;3.10;;;;;;;;;;6298586;27;20071;-80
2022/10/19 18:25:54;;;;;;;6.13;3.90;;;;;;;;;;6303484;27;20056;-79
2022/10/19 18:28:57;;;;;;;9.48;3.63;;;;;;;;;;6299645;28;20877;-79